Time;durP1;ratioP1;P1;durP2;ratioP2;P2;SDS_P1;SDS_P2;PMS_P1;PMS_P2;Temp;Humidity;BMP_temperature;BMP_pressure;BME280_temperature;BME280_humidity;BME280_pressure;Samples;Min_cycle;Max_cycle;Signal;HPM_P1;HPM_P2
2023/10/21 00:00:20;;;;;;;15.80;2.72;;;13.80;89.30;;;;;;6220012;28;20115;-86
2023/10/21 00:03:22;;;;;;;12.77;2.67;;;13.80;90.00;;;;;;6221594;28;20057;-84
2023/10/21 00:06:23;;;;;;;13.45;2.53;;;13.80;90.20;;;;;;6223948;28;20049;-85
2023/10/21 00:09:25;;;;;;;14.60;2.50;;;13.80;90.30;;;;;;6222917;28;20053;-85
2023/10/21 00:12:27;;;;;;;11.48;2.40;;;13.70;90.30;;;;;;6223072;28;20066;-86
2023/10/21 00:15:28;;;;;;;14.10;2.35;;;13.70;90.50;;;;;;6219336;28;20054;-84
2023/10/21 00:18:30;;;;;;;13.90;3.08;;;13.70;90.70;;;;;;6220330;28;20069;-85
2023/10/21 00:21:32;;;;;;;10.75;2.70;;;13.70;90.70;;;;;;6222403;28;20054;-85
2023/10/21 00:24:34;;;;;;;15.75;2.83;;;13.70;91.00;;;;;;6222007;28;20128;-86
2023/10/21 00:27:35;;;;;;;12.60;2.53;;;13.70;91.10;;;;;;6220853;28;20050;-85
2023/10/21 00:30:37;;;;;;;17.13;2.33;;;13.70;91.10;;;;;;6222300;28;20050;-85
2023/10/21 00:33:39;;;;;;;17.67;3.05;;;13.70;91.20;;;;;;6197768;28;20059;-85
2023/10/21 00:36:40;;;;;;;14.15;2.70;;;13.80;91.30;;;;;;6221345;28;20046;-85
2023/10/21 00:39:42;;;;;;;15.25;2.75;;;13.80;91.30;;;;;;6220613;28;20514;-85
2023/10/21 00:42:44;;;;;;;17.27;2.95;;;13.80;91.40;;;;;;6220978;28;20038;-86
2023/10/21 00:45:46;;;;;;;14.00;2.65;;;13.70;91.00;;;;;;6220938;28;20058;-86
2023/10/21 00:48:47;;;;;;;23.30;4.38;;;13.60;90.80;;;;;;6197495;28;20050;-85
2023/10/21 00:51:49;;;;;;;18.25;3.22;;;13.60;91.30;;;;;;6226306;28;20157;-85
2023/10/21 00:54:51;;;;;;;16.50;2.80;;;13.50;91.60;;;;;;6225576;28;20115;-85
2023/10/21 00:57:53;;;;;;;15.13;3.53;;;13.40;91.40;;;;;;6226032;28;20069;-85
2023/10/21 01:00:54;;;;;;;18.95;3.88;;;13.40;91.40;;;;;;6225804;28;20045;-84
2023/10/21 01:03:56;;;;;;;21.48;4.15;;;13.30;91.50;;;;;;6201315;28;20050;-84
2023/10/21 01:06:59;;;;;;;22.13;4.57;;;13.30;91.60;;;;;;6232227;28;20208;-83
2023/10/21 01:10:03;;;;;;;19.55;4.13;;;13.30;91.70;;;;;;6223856;28;20050;-84
2023/10/21 01:13:05;;;;;;;26.30;4.60;;;13.30;91.80;;;;;;6221216;28;20391;-85
2023/10/21 01:16:07;;;;;;;19.02;3.47;;;13.20;91.80;;;;;;6224131;28;20065;-83
2023/10/21 01:19:08;;;;;;;19.92;4.18;;;13.20;91.90;;;;;;6223549;28;20068;-83
2023/10/21 01:22:10;;;;;;;23.27;4.53;;;13.20;91.90;;;;;;6221902;28;20057;-84
2023/10/21 01:25:12;;;;;;;19.80;3.75;;;13.30;91.90;;;;;;6223877;28;20049;-84
2023/10/21 01:28:14;;;;;;;17.63;4.07;;;13.30;91.90;;;;;;6222206;28;20200;-84
2023/10/21 01:31:15;;;;;;;19.13;2.92;;;13.30;91.90;;;;;;6224287;28;20050;-84
2023/10/21 01:34:17;;;;;;;16.63;3.10;;;13.40;92.00;;;;;;6221973;28;20057;-84
2023/10/21 01:37:20;;;;;;;18.73;3.65;;;13.50;92.00;;;;;;6222859;28;20054;-83
2023/10/21 01:40:22;;;;;;;10.50;2.28;;;13.50;92.00;;;;;;6224460;28;20058;-84
2023/10/21 01:43:23;;;;;;;15.20;2.72;;;13.50;91.90;;;;;;6218748;28;20421;-83
2023/10/21 01:46:26;;;;;;;20.25;2.92;;;13.50;91.90;;;;;;6222816;28;20050;-84
2023/10/21 01:49:28;;;;;;;17.90;4.35;;;13.50;91.90;;;;;;6222728;28;20590;-83
2023/10/21 01:52:29;;;;;;;11.77;2.88;;;13.50;91.90;;;;;;6223322;28;20058;-83
2023/10/21 01:55:31;;;;;;;12.38;2.25;;;13.50;91.90;;;;;;6223063;28;20050;-83
2023/10/21 01:58:33;;;;;;;15.25;2.40;;;13.60;91.70;;;;;;6220644;28;20050;-84
2023/10/21 02:01:34;;;;;;;12.52;2.40;;;13.60;91.80;;;;;;6217443;28;20053;-84
2023/10/21 02:04:36;;;;;;;17.38;3.33;;;13.60;91.80;;;;;;6272291;22;20149;-84
2023/10/21 02:07:39;;;;;;;20.92;4.15;;;13.70;91.90;;;;;;6150011;28;20051;-84
2023/10/21 02:10:41;;;;;;;14.45;2.95;;;13.70;91.70;;;;;;6173206;28;20489;-84
2023/10/21 02:13:42;;;;;;;13.80;2.50;;;13.70;91.60;;;;;;6156303;28;20055;-85
2023/10/21 02:16:44;;;;;;;12.77;2.10;;;13.80;91.70;;;;;;6150776;28;20063;-83
2023/10/21 02:19:45;;;;;;;16.33;2.20;;;13.80;91.70;;;;;;6172458;28;20054;-83
2023/10/21 02:22:47;;;;;;;14.93;2.38;;;13.80;91.70;;;;;;6148308;28;20054;-83
2023/10/21 02:25:49;;;;;;;10.68;1.75;;;13.90;91.80;;;;;;6172575;28;20065;-84
2023/10/21 02:28:50;;;;;;;12.25;1.90;;;13.80;91.80;;;;;;6158759;28;20054;-83
2023/10/21 02:31:52;;;;;;;14.75;1.77;;;13.80;91.70;;;;;;6149032;28;20434;-83
2023/10/21 02:34:55;;;;;;;11.00;2.35;;;13.70;91.80;;;;;;6171985;28;20555;-81
2023/10/21 02:37:57;;;;;;;12.48;1.83;;;13.60;91.90;;;;;;6147931;28;20524;-82
2023/10/21 02:40:59;;;;;;;11.90;2.10;;;13.60;91.80;;;;;;6172462;28;20791;-83
2023/10/21 02:44:00;;;;;;;14.98;2.10;;;13.60;91.90;;;;;;6160720;28;20058;-83
2023/10/21 02:47:02;;;;;;;10.90;1.83;;;13.50;91.80;;;;;;6149419;28;20173;-83
2023/10/21 02:50:03;;;;;;;16.88;2.00;;;13.50;91.90;;;;;;6171971;28;20513;-83
2023/10/21 02:53:05;;;;;;;13.40;1.60;;;13.50;91.90;;;;;;6149194;28;20066;-82
2023/10/21 02:56:07;;;;;;;11.35;1.40;;;13.40;91.70;;;;;;6171885;28;20383;-83
2023/10/21 02:59:08;;;;;;;8.43;1.88;;;13.40;91.80;;;;;;6159151;28;20062;-83
2023/10/21 03:02:12;;;;;;;7.65;1.80;;;13.40;91.70;;;;;;6147608;28;20055;-84
2023/10/21 03:05:14;;;;;;;12.45;1.85;;;13.30;91.80;;;;;;6171845;28;20055;-84
2023/10/21 03:08:16;;;;;;;9.60;1.58;;;13.20;91.70;;;;;;6147715;28;20407;-84
2023/10/21 03:11:18;;;;;;;12.55;1.98;;;13.20;91.90;;;;;;6171923;28;20823;-85
2023/10/21 03:14:19;;;;;;;10.20;2.22;;;13.20;91.90;;;;;;6145335;28;20062;-83
2023/10/21 03:17:21;;;;;;;13.80;2.35;;;13.20;91.80;;;;;;6171292;28;20043;-83
2023/10/21 03:20:23;;;;;;;14.55;1.77;;;13.20;91.90;;;;;;6148667;28;20423;-83
2023/10/21 03:23:24;;;;;;;12.48;1.92;;;13.20;91.80;;;;;;6170333;28;20545;-83
2023/10/21 03:26:26;;;;;;;10.70;1.50;;;13.20;91.90;;;;;;6148571;28;20055;-83
2023/10/21 03:29:27;;;;;;;11.07;1.85;;;13.20;91.70;;;;;;6153377;28;20051;-83
2023/10/21 03:32:29;;;;;;;10.45;1.45;;;13.10;91.70;;;;;;6171224;28;20063;-83
2023/10/21 03:35:31;;;;;;;6.05;1.10;;;13.10;91.60;;;;;;6148282;28;20508;-83
2023/10/21 03:38:33;;;;;;;8.02;1.10;;;13.10;91.80;;;;;;6171428;28;20450;-83
2023/10/21 03:41:34;;;;;;;8.48;1.52;;;13.10;91.80;;;;;;6147737;28;20055;-82
2023/10/21 03:44:36;;;;;;;4.80;0.90;;;13.00;91.70;;;;;;6166812;28;20473;-83
2023/10/21 03:47:38;;;;;;;7.57;1.15;;;13.00;91.40;;;;;;6148166;28;20054;-84
2023/10/21 03:50:40;;;;;;;6.10;1.42;;;13.00;91.50;;;;;;6169866;28;20130;-83
2023/10/21 03:53:41;;;;;;;5.25;1.00;;;13.00;91.30;;;;;;6148782;28;20059;-84
2023/10/21 03:56:43;;;;;;;5.65;1.10;;;12.90;91.30;;;;;;6172061;28;20065;-83
2023/10/21 03:59:44;;;;;;;6.00;1.10;;;12.90;91.40;;;;;;6142202;28;20121;-84
2023/10/21 04:02:47;;;;;;;11.80;1.05;;;12.90;91.20;;;;;;6146175;28;20061;-83
2023/10/21 04:05:50;;;;;;;5.95;0.77;;;12.90;91.20;;;;;;6169156;28;20061;-84
2023/10/21 04:08:51;;;;;;;4.25;0.80;;;12.80;91.20;;;;;;6170194;28;20066;-83
2023/10/21 04:11:53;;;;;;;6.50;0.90;;;12.70;91.10;;;;;;6148080;28;20459;-83
2023/10/21 04:14:55;;;;;;;7.07;1.25;;;12.70;91.40;;;;;;6169724;28;20059;-83
2023/10/21 04:17:56;;;;;;;6.43;1.25;;;12.60;91.30;;;;;;6148423;28;20063;-83
2023/10/21 04:20:58;;;;;;;5.97;1.00;;;12.60;91.40;;;;;;6169738;28;20077;-83
2023/10/21 04:24:00;;;;;;;6.07;1.00;;;12.50;91.30;;;;;;6149523;28;20082;-83
2023/10/21 04:27:02;;;;;;;9.23;1.15;;;12.40;91.20;;;;;;6174501;28;20520;-83
2023/10/21 04:30:03;;;;;;;7.18;1.10;;;12.30;91.40;;;;;;6149739;28;20501;-83
2023/10/21 04:33:05;;;;;;;5.15;1.33;;;12.30;91.50;;;;;;6175355;28;20081;-83
2023/10/21 04:36:07;;;;;;;6.28;1.40;;;12.30;91.60;;;;;;6151027;28;20077;-83
2023/10/21 04:39:09;;;;;;;3.95;1.05;;;12.30;91.60;;;;;;6175499;28;20505;-83
2023/10/21 04:45:31;;;;;;;4.75;0.90;;;12.30;91.70;;;;;;6173238;28;20046;-83
2023/10/21 04:48:35;;;;;;;8.30;1.00;;;12.30;91.90;;;;;;6152372;28;20055;-84
2023/10/21 04:51:37;;;;;;;8.35;1.13;;;12.50;92.00;;;;;;6174141;28;20137;-84
2023/10/21 04:54:38;;;;;;;6.07;1.00;;;12.60;92.10;;;;;;6150938;28;20051;-83
2023/10/21 04:57:40;;;;;;;4.07;0.80;;;12.70;92.20;;;;;;6173958;28;20444;-84
2023/10/21 05:00:42;;;;;;;3.97;0.75;;;12.80;92.20;;;;;;6151409;28;20063;-83
2023/10/21 05:03:43;;;;;;;2.22;0.82;;;12.90;92.30;;;;;;6166680;28;20061;-84
2023/10/21 05:06:45;;;;;;;3.08;0.75;;;12.90;92.20;;;;;;6171968;28;20061;-84
2023/10/21 05:09:47;;;;;;;3.75;0.80;;;13.00;92.30;;;;;;6152493;28;20055;-84
2023/10/21 05:12:49;;;;;;;5.03;0.90;;;13.10;92.30;;;;;;6170268;28;20509;-84
2023/10/21 05:15:50;;;;;;;5.63;0.70;;;13.10;92.20;;;;;;6151123;29;20059;-83
2023/10/21 05:18:52;;;;;;;4.85;1.58;;;13.10;92.30;;;;;;6152137;28;20048;-84
2023/10/21 05:21:53;;;;;;;4.13;0.80;;;13.20;92.30;;;;;;6175835;28;20062;-85
2023/10/21 05:24:55;;;;;;;5.30;0.80;;;13.20;92.40;;;;;;6151195;28;20082;-85
2023/10/21 05:27:57;;;;;;;5.75;0.60;;;13.20;92.40;;;;;;6171416;28;20050;-86
2023/10/21 05:30:59;;;;;;;4.57;0.73;;;13.20;92.40;;;;;;6152726;28;20051;-84
2023/10/21 05:34:00;;;;;;;3.88;0.90;;;13.30;92.40;;;;;;6175480;28;20109;-84
2023/10/21 05:37:02;;;;;;;3.47;0.80;;;13.30;92.50;;;;;;6150539;28;20568;-85
2023/10/21 05:40:05;;;;;;;5.00;0.88;;;13.40;92.50;;;;;;6174868;28;20070;-82
2023/10/21 05:43:07;;;;;;;7.43;1.30;;;13.40;92.50;;;;;;6152443;28;20055;-81
2023/10/21 05:46:08;;;;;;;3.83;0.82;;;13.40;92.60;;;;;;6175359;28;20054;-82
2023/10/21 05:49:10;;;;;;;6.15;1.00;;;13.30;92.60;;;;;;6152374;28;20848;-82
2023/10/21 05:52:14;;;;;;;4.85;1.00;;;13.30;92.60;;;;;;6182900;28;20054;-83
2023/10/21 05:55:17;;;;;;;3.85;1.10;;;13.30;92.70;;;;;;6175550;28;20047;-83
2023/10/21 05:58:19;;;;;;;3.67;1.35;;;13.40;93.00;;;;;;6155773;28;20050;-84
2023/10/21 06:01:20;;;;;;;4.43;0.90;;;13.30;92.70;;;;;;6174128;28;20059;-83
2023/10/21 06:04:22;;;;;;;4.63;1.10;;;13.30;92.70;;;;;;6161920;28;20525;-84
2023/10/21 06:07:24;;;;;;;4.00;0.80;;;13.30;92.70;;;;;;6147074;28;20062;-83
2023/10/21 06:10:25;;;;;;;5.40;0.80;;;13.30;92.70;;;;;;6172039;28;20054;-84
2023/10/21 06:13:27;;;;;;;3.33;0.70;;;13.30;92.70;;;;;;6155058;28;20054;-84
2023/10/21 06:16:29;;;;;;;2.75;0.73;;;13.30;92.70;;;;;;6149493;28;20058;-85
2023/10/21 06:19:31;;;;;;;5.03;0.80;;;13.30;92.70;;;;;;6172785;28;20087;-84
2023/10/21 06:22:32;;;;;;;3.58;0.70;;;13.30;92.90;;;;;;6150000;28;20055;-84
2023/10/21 06:25:34;;;;;;;5.22;1.10;;;13.30;92.70;;;;;;6174270;28;20072;-85
2023/10/21 06:28:37;;;;;;;2.85;0.70;;;13.30;92.70;;;;;;6158536;28;20051;-84
2023/10/21 06:31:39;;;;;;;2.78;0.70;;;13.30;92.70;;;;;;6151795;28;20074;-84
2023/10/21 06:34:41;;;;;;;2.75;0.70;;;13.30;92.70;;;;;;6172450;28;20057;-84
2023/10/21 06:37:43;;;;;;;3.50;0.68;;;13.20;92.70;;;;;;6150339;28;20069;-85
2023/10/21 06:40:45;;;;;;;2.35;0.80;;;13.30;92.70;;;;;;6173708;28;20054;-86
2023/10/21 06:44:07;;;;;;;2.17;0.80;;;13.30;92.80;;;;;;6160723;28;20050;-84
2023/10/21 06:47:09;;;;;;;3.95;1.50;;;13.20;92.80;;;;;;6150431;28;20142;-85
2023/10/21 06:50:11;;;;;;;2.65;1.00;;;13.30;92.70;;;;;;6174621;28;20058;-86
2023/10/21 06:53:14;;;;;;;2.20;0.50;;;13.30;92.70;;;;;;6154166;28;20051;-86
2023/10/21 06:56:16;;;;;;;2.05;0.77;;;13.30;92.70;;;;;;6175419;28;20055;-86
2023/10/21 06:59:17;;;;;;;2.38;0.63;;;13.30;92.60;;;;;;6166588;28;20061;-86
2023/10/21 07:02:19;;;;;;;3.33;0.60;;;13.30;92.60;;;;;;6151743;28;20054;-86
2023/10/21 07:05:22;;;;;;;2.58;0.60;;;13.30;92.50;;;;;;6174503;28;20060;-87
2023/10/21 07:08:24;;;;;;;3.72;1.05;;;13.20;92.50;;;;;;6173083;28;20047;-86
2023/10/21 07:11:25;;;;;;;1.15;0.50;;;13.20;92.50;;;;;;6152175;28;20093;-86
2023/10/21 07:14:27;;;;;;;2.35;0.50;;;13.20;92.50;;;;;;6156213;28;20087;-87
2023/10/21 07:17:29;;;;;;;0.80;0.50;;;13.20;92.50;;;;;;6175464;28;20065;-85
2023/10/21 07:20:30;;;;;;;2.30;0.50;;;13.20;92.50;;;;;;6175908;28;20055;-85
2023/10/21 07:23:32;;;;;;;2.28;0.50;;;13.20;92.50;;;;;;6150401;28;20047;-86
2023/10/21 07:26:34;;;;;;;1.52;0.40;;;13.20;92.50;;;;;;6172945;28;20058;-84
2023/10/21 07:29:36;;;;;;;4.88;0.60;;;13.20;92.50;;;;;;6147972;28;20086;-84
2023/10/21 07:32:37;;;;;;;2.58;0.82;;;13.20;92.60;;;;;;6171190;28;20086;-84
2023/10/21 07:35:39;;;;;;;1.85;0.50;;;13.20;92.60;;;;;;6147257;28;20059;-85
2023/10/21 07:38:41;;;;;;;0.75;0.40;;;13.20;92.70;;;;;;6169631;28;20061;-86
2023/10/21 07:41:43;;;;;;;2.45;0.40;;;13.20;92.70;;;;;;6149368;28;20059;-86
2023/10/21 07:44:47;;;;;;;0.73;0.30;;;13.20;92.80;;;;;;6170155;28;20142;-85
2023/10/21 07:47:49;;;;;;;1.42;0.50;;;13.30;92.80;;;;;;6148109;28;20051;-85
2023/10/21 07:50:50;;;;;;;0.73;0.50;;;13.30;92.80;;;;;;6173136;28;20043;-85
2023/10/21 07:53:53;;;;;;;1.55;0.50;;;13.40;92.90;;;;;;6149311;28;20055;-84
2023/10/21 07:56:55;;;;;;;0.40;0.30;;;13.40;92.90;;;;;;6173501;28;20093;-85
2023/10/21 07:59:57;;;;;;;0.60;0.32;;;13.50;92.90;;;;;;6169578;28;20055;-84
2023/10/21 08:02:59;;;;;;;0.40;0.40;;;13.40;92.80;;;;;;6153104;28;20070;-87
2023/10/21 08:06:01;;;;;;;1.70;0.88;;;13.40;92.70;;;;;;6178468;28;20043;-88
2023/10/21 08:09:04;;;;;;;0.73;0.40;;;13.40;92.70;;;;;;6175893;28;20046;-89
2023/10/21 08:12:06;;;;;;;1.50;0.40;;;13.60;93.00;;;;;;6152053;28;20211;-89
2023/10/21 08:15:08;;;;;;;0.38;0.30;;;13.50;92.80;;;;;;6172071;28;20063;-89
2023/10/21 08:18:10;;;;;;;2.78;0.40;;;13.50;92.60;;;;;;6151734;28;20130;-90
2023/10/21 08:21:13;;;;;;;1.10;0.30;;;13.50;92.60;;;;;;6175029;28;20145;-90
2023/10/21 08:24:15;;;;;;;1.13;0.30;;;13.60;92.40;;;;;;6152647;28;20054;-89
2023/10/21 08:27:17;;;;;;;1.35;0.38;;;13.60;92.30;;;;;;6176861;28;20091;-90
2023/10/21 08:30:20;;;;;;;1.25;0.40;;;13.80;92.50;;;;;;6150382;28;20113;-91
2023/10/21 08:33:22;;;;;;;2.72;0.40;;;13.70;92.00;;;;;;6175189;28;20047;-92
2023/10/21 08:36:23;;;;;;;0.65;0.30;;;13.80;92.40;;;;;;6152367;28;20063;-90
2023/10/21 08:39:25;;;;;;;1.05;0.47;;;13.90;92.30;;;;;;6175717;28;20062;-89
2023/10/21 08:42:28;;;;;;;2.10;0.70;;;13.90;92.30;;;;;;6152840;28;20056;-93
2023/10/21 08:45:50;;;;;;;3.50;0.40;;;13.90;92.30;;;;;;6153562;28;20059;-91
2023/10/21 08:48:52;;;;;;;1.90;0.40;;;14.00;92.20;;;;;;6169656;28;20059;-91
2023/10/21 08:51:53;;;;;;;1.23;0.30;;;13.90;92.00;;;;;;6175974;28;20051;-90
2023/10/21 08:54:55;;;;;;;1.48;0.50;;;14.00;92.40;;;;;;6152487;28;20502;-90
2023/10/21 08:57:57;;;;;;;1.27;0.47;;;14.10;92.10;;;;;;6170676;28;20054;-91
2023/10/21 09:00:59;;;;;;;0.82;0.40;;;14.20;92.20;;;;;;6151755;29;20051;-90
2023/10/21 09:04:00;;;;;;;0.75;0.30;;;14.20;91.70;;;;;;6165501;28;20063;-88
2023/10/21 09:07:02;;;;;;;3.53;0.85;;;14.30;91.40;;;;;;6163959;28;20055;-90
2023/10/21 09:10:04;;;;;;;0.85;0.40;;;14.20;91.20;;;;;;6184516;28;20055;-87
2023/10/21 09:13:05;;;;;;;1.92;0.40;;;14.30;91.50;;;;;;6175528;28;20058;-90
2023/10/21 09:16:08;;;;;;;0.80;0.30;;;14.40;91.70;;;;;;6188892;28;20050;-91
2023/10/21 09:19:11;;;;;;;0.55;0.30;;;14.30;92.00;;;;;;6176186;28;20058;-91
2023/10/21 09:22:12;;;;;;;2.28;0.60;;;14.30;92.10;;;;;;6182430;28;20057;-91
2023/10/21 09:25:23;;;;;;;1.45;0.40;;;14.40;92.10;;;;;;6156008;28;20051;-89
2023/10/21 09:28:25;;;;;;;1.40;0.35;;;14.50;92.10;;;;;;6175797;28;20061;-89
2023/10/21 09:31:27;;;;;;;3.65;0.40;;;14.50;91.70;;;;;;6179579;28;20133;-90
2023/10/21 09:34:29;;;;;;;1.60;0.30;;;14.80;92.10;;;;;;6156071;28;20051;-90
2023/10/21 09:37:31;;;;;;;0.93;0.47;;;15.00;91.90;;;;;;6179757;28;20046;-90
2023/10/21 09:40:33;;;;;;;0.50;0.35;;;15.00;91.10;;;;;;6155450;28;20059;-89
2023/10/21 09:43:35;;;;;;;1.58;0.40;;;14.90;90.70;;;;;;6168849;28;20059;-89
2023/10/21 09:46:36;;;;;;;1.20;0.47;;;15.00;91.70;;;;;;6177745;28;20109;-88
2023/10/21 09:49:38;;;;;;;1.23;0.40;;;15.10;91.00;;;;;;6154722;28;20055;-88
2023/10/21 09:52:40;;;;;;;0.77;0.40;;;15.40;91.90;;;;;;6178590;28;20630;-89
2023/10/21 09:55:41;;;;;;;1.30;0.50;;;15.90;91.00;;;;;;6154331;28;20055;-88
2023/10/21 09:58:44;;;;;;;1.00;0.50;;;16.40;90.30;;;;;;6167453;28;20669;-89
2023/10/21 10:01:45;;;;;;;2.28;0.50;;;17.40;81.20;;;;;;6178353;28;20054;-90
2023/10/21 10:04:47;;;;;;;1.52;0.50;;;18.30;73.30;;;;;;6153429;28;20051;-88
2023/10/21 10:07:49;;;;;;;2.08;0.68;;;18.70;75.30;;;;;;6157256;28;20157;-88
2023/10/21 10:10:51;;;;;;;1.55;0.50;;;18.50;65.00;;;;;;6177655;28;20055;-89
2023/10/21 10:13:53;;;;;;;1.08;0.47;;;18.50;58.00;;;;;;6163899;28;20069;-88
2023/10/21 10:16:55;;;;;;;2.00;0.50;;;17.90;58.20;;;;;;6154443;28;20055;-87
2023/10/21 10:19:56;;;;;;;1.75;0.50;;;17.80;69.40;;;;;;6177262;28;20051;-87
2023/10/21 10:23:01;;;;;;;2.08;0.57;;;17.60;74.90;;;;;;6154314;28;20097;-86
2023/10/21 10:26:03;;;;;;;1.42;0.60;;;17.30;69.10;;;;;;6175468;28;20747;-88
2023/10/21 10:29:05;;;;;;;1.83;0.60;;;17.40;75.70;;;;;;6164527;28;20065;-85
2023/10/21 10:32:06;;;;;;;3.33;0.82;;;17.50;70.00;;;;;;6152095;28;20059;-86
2023/10/21 10:35:08;;;;;;;2.35;0.70;;;18.40;80.30;;;;;;6174169;28;20062;-85
2023/10/21 10:38:10;;;;;;;2.22;0.70;;;19.30;64.80;;;;;;6152601;28;20047;-87
2023/10/21 10:41:15;;;;;;;1.70;0.60;;;20.10;24.80;;;;;;6173716;28;20525;-85
2023/10/21 10:44:17;;;;;;;4.50;1.10;;;20.40;61.00;;;;;;6159978;28;20141;-83
2023/10/21 10:47:20;;;;;;;4.90;0.90;;;19.90;39.10;;;;;;6151091;28;20471;-88
2023/10/21 10:50:23;;;;;;;6.40;1.20;;;19.00;41.20;;;;;;6175574;28;20055;-87
2023/10/21 10:53:25;;;;;;;6.72;1.10;;;18.20;55.40;;;;;;6152907;28;20071;-83
2023/10/21 10:56:27;;;;;;;5.50;1.02;;;17.90;65.00;;;;;;6173793;28;20051;-84
2023/10/21 10:59:29;;;;;;;5.10;1.38;;;17.60;62.10;;;;;;6148397;28;20410;-84
2023/10/21 11:02:30;;;;;;;4.28;0.90;;;17.00;69.80;;;;;;6175788;28;20062;-83
2023/10/21 11:05:32;;;;;;;5.63;1.15;;;16.80;76.20;;;;;;6152942;28;20407;-81
2023/10/21 11:08:34;;;;;;;2.72;0.82;;;16.60;76.60;;;;;;6150624;28;20055;-83
2023/10/21 11:11:35;;;;;;;4.15;0.93;;;16.40;78.80;;;;;;6173256;28;20047;-82
2023/10/21 11:14:38;;;;;;;6.80;1.08;;;16.10;80.20;;;;;;6147681;28;20066;-86
2023/10/21 11:17:40;;;;;;;6.53;1.00;;;16.00;81.90;;;;;;6172510;28;20047;-84
2023/10/21 11:20:41;;;;;;;5.43;1.20;;;15.90;82.00;;;;;;6149004;28;20138;-84
2023/10/21 11:23:43;;;;;;;6.07;1.15;;;15.90;83.70;;;;;;6172459;28;20732;-85
2023/10/21 11:26:45;;;;;;;2.55;0.80;;;16.00;84.90;;;;;;6148846;28;20058;-83
2023/10/21 11:29:47;;;;;;;3.35;0.80;;;15.90;84.90;;;;;;6168241;28;20054;-84
2023/10/21 11:32:49;;;;;;;4.85;0.90;;;15.90;87.90;;;;;;6147100;28;20147;-84
2023/10/21 11:35:50;;;;;;;2.80;1.02;;;15.90;87.70;;;;;;6170030;28;20494;-84
2023/10/21 11:38:52;;;;;;;3.65;0.70;;;15.80;88.10;;;;;;6148522;28;20047;-85
2023/10/21 11:41:54;;;;;;;3.30;0.80;;;15.90;85.40;;;;;;6174431;28;20055;-85
2023/10/21 11:44:56;;;;;;;2.95;0.80;;;16.30;88.50;;;;;;6148583;28;20058;-85
2023/10/21 11:47:57;;;;;;;2.17;0.65;;;16.70;81.20;;;;;;6179272;28;20050;-86
2023/10/21 11:50:59;;;;;;;2.95;0.88;;;17.30;81.00;;;;;;6150977;28;20485;-87
2023/10/21 11:54:01;;;;;;;2.55;0.70;;;17.70;77.60;;;;;;6174972;28;20050;-87
2023/10/21 12:13:26;;;;;;;5.18;0.98;;;16.20;73.40;;;;;;6154193;28;20054;-85
2023/10/21 12:39:20;;;;;;;5.85;0.80;;;17.70;68.80;;;;;;6175005;28;20078;-86
2023/10/21 12:42:30;;;;;;;3.90;0.80;;;18.60;61.70;;;;;;6149594;28;20047;-85
2023/10/21 12:45:35;;;;;;;5.57;1.00;;;18.80;35.90;;;;;;6175073;28;20052;-87
2023/10/21 12:48:36;;;;;;;3.13;0.60;;;19.30;36.40;;;;;;6154427;28;20411;-86
2023/10/21 12:51:38;;;;;;;2.30;0.63;;;18.70;29.80;;;;;;6176932;28;20681;-86
2023/10/21 12:54:40;;;;;;;2.38;0.55;;;18.20;51.00;;;;;;6156388;28;20431;-88
2023/10/21 12:57:43;;;;;;;3.72;0.70;;;18.10;57.50;;;;;;6176546;28;20054;-87
2023/10/21 13:00:45;;;;;;;2.92;0.68;;;17.80;55.40;;;;;;6153195;28;20108;-87
2023/10/21 13:03:49;;;;;;;3.70;1.13;;;17.20;47.60;;;;;;6179488;28;20059;-86
2023/10/21 13:06:53;;;;;;;3.65;0.70;;;16.90;61.10;;;;;;6151900;28;20047;-85
2023/10/21 13:09:55;;;;;;;4.10;0.73;;;16.70;54.90;;;;;;6176187;28;20055;-83
2023/10/21 13:12:57;;;;;;;1.70;0.60;;;16.40;67.60;;;;;;6154664;28;20127;-86
2023/10/21 13:15:59;;;;;;;1.92;0.60;;;16.30;64.30;;;;;;6176649;28;20058;-87
2023/10/21 13:19:00;;;;;;;2.42;0.50;;;16.40;63.20;;;;;;6168140;28;20051;-84
2023/10/21 13:22:05;;;;;;;3.83;0.60;;;16.60;65.90;;;;;;6182573;28;20061;-84
2023/10/21 13:25:08;;;;;;;4.60;0.80;;;16.80;61.90;;;;;;6176093;28;20129;-85
2023/10/21 13:28:20;;;;;;;3.97;0.98;;;16.70;66.40;;;;;;6153548;28;20764;-83
2023/10/21 13:31:21;;;;;;;4.70;0.80;;;16.70;60.40;;;;;;6176178;28;20053;-87
2023/10/21 13:34:23;;;;;;;4.85;1.10;;;17.20;58.10;;;;;;6150366;28;20088;-85
2023/10/21 13:37:25;;;;;;;5.68;0.75;;;17.40;57.70;;;;;;6175453;28;20066;-86
2023/10/21 13:40:27;;;;;;;2.47;0.90;;;17.30;53.80;;;;;;6152151;28;20062;-86
2023/10/21 13:43:28;;;;;;;2.90;0.55;;;17.00;54.50;;;;;;6164751;28;20084;-85
2023/10/21 13:46:30;;;;;;;2.85;0.60;;;17.00;68.20;;;;;;6172770;28;20047;-85
2023/10/21 13:49:32;;;;;;;3.85;0.75;;;16.80;57.60;;;;;;6151335;28;20522;-84
2023/10/21 13:52:33;;;;;;;4.53;0.85;;;16.80;67.10;;;;;;6173550;28;20043;-84
2023/10/21 13:55:35;;;;;;;2.83;0.75;;;17.10;54.80;;;;;;6150137;28;20491;-82
2023/10/21 13:58:37;;;;;;;2.65;0.65;;;17.00;55.00;;;;;;6162758;28;20051;-85
2023/10/21 14:01:41;;;;;;;2.70;0.60;;;17.00;44.30;;;;;;6173533;28;20545;-85
2023/10/21 14:04:43;;;;;;;1.63;0.57;;;17.00;57.80;;;;;;6169190;28;20137;-84
2023/10/21 14:07:45;;;;;;;3.28;0.60;;;17.00;42.10;;;;;;6151804;28;20059;-84
2023/10/21 14:10:47;;;;;;;1.55;0.50;;;17.30;44.70;;;;;;6173248;28;20047;-84
2023/10/21 14:13:49;;;;;;;4.07;0.80;;;17.50;44.90;;;;;;6159765;28;20058;-85
2023/10/21 14:16:51;;;;;;;2.95;0.60;;;18.00;37.80;;;;;;6149162;28;20055;-84
2023/10/21 14:19:53;;;;;;;2.45;0.65;;;17.80;34.80;;;;;;6172709;28;20047;-84
2023/10/21 14:22:55;;;;;;;2.53;0.60;;;17.50;34.50;;;;;;6148705;28;20410;-84
2023/10/21 14:25:57;;;;;;;2.83;0.70;;;17.10;38.60;;;;;;6171350;28;20069;-84
2023/10/21 14:28:58;;;;;;;3.38;0.52;;;16.70;42.60;;;;;;6157041;28;20196;-84
2023/10/21 14:32:00;;;;;;;2.72;0.70;;;16.50;49.00;;;;;;6149439;28;20062;-84
2023/10/21 14:35:02;;;;;;;5.03;0.93;;;16.50;53.40;;;;;;6171640;28;20465;-84
2023/10/21 14:38:06;;;;;;;3.85;0.73;;;16.50;49.20;;;;;;6149139;28;20051;-84
2023/10/21 14:41:09;;;;;;;2.40;0.63;;;16.60;54.90;;;;;;6170428;28;20058;-83
2023/10/21 14:44:11;;;;;;;1.70;0.55;;;16.50;50.70;;;;;;6156880;28;20082;-84
2023/10/21 14:47:13;;;;;;;3.67;0.70;;;16.40;55.70;;;;;;6148126;28;20059;-83
2023/10/21 14:50:15;;;;;;;3.75;0.63;;;16.20;59.00;;;;;;6172101;28;20055;-83
2023/10/21 14:53:16;;;;;;;3.97;0.90;;;16.00;58.10;;;;;;6147888;28;20059;-83
2023/10/21 14:56:19;;;;;;;5.85;0.95;;;16.00;60.60;;;;;;6170761;28;20058;-83
2023/10/21 14:59:21;;;;;;;3.15;0.70;;;16.00;61.20;;;;;;6161391;28;20050;-83
2023/10/21 15:02:23;;;;;;;5.85;0.88;;;15.90;62.70;;;;;;6147245;28;20079;-85
2023/10/21 15:05:24;;;;;;;6.55;1.00;;;15.90;61.60;;;;;;6148051;29;20137;-81
2023/10/21 15:08:26;;;;;;;3.55;0.80;;;16.00;65.10;;;;;;6169383;28;20073;-83
2023/10/21 15:11:28;;;;;;;2.45;0.68;;;16.10;61.80;;;;;;6148343;28;20137;-82
2023/10/21 15:14:30;;;;;;;4.18;0.80;;;16.10;62.00;;;;;;6169505;28;20062;-83
2023/10/21 15:17:50;;;;;;;3.63;0.70;;;16.20;63.10;;;;;;6148023;29;20137;-84
2023/10/21 15:20:53;;;;;;;4.03;0.75;;;16.30;62.80;;;;;;6171524;28;20058;-84
2023/10/21 15:23:55;;;;;;;3.30;0.70;;;16.30;61.10;;;;;;6174473;28;20050;-84
2023/10/21 15:26:57;;;;;;;4.28;0.80;;;16.20;61.40;;;;;;6148821;28;20138;-83
2023/10/21 15:29:59;;;;;;;7.18;0.93;;;16.10;62.90;;;;;;6168029;28;20120;-84
2023/10/21 15:33:02;;;;;;;3.65;0.80;;;16.20;56.90;;;;;;6147939;28;20059;-83
2023/10/21 15:36:04;;;;;;;4.38;0.70;;;16.10;61.60;;;;;;6169975;28;20051;-84
2023/10/21 15:39:27;;;;;;;2.45;0.77;;;16.00;61.60;;;;;;6146482;28;20458;-84
2023/10/21 15:42:28;;;;;;;3.33;0.90;;;16.10;64.60;;;;;;6148367;28;20059;-84
2023/10/21 15:45:30;;;;;;;6.50;0.80;;;16.20;60.30;;;;;;6161357;28;20062;-84
2023/10/21 15:48:35;;;;;;;4.55;0.80;;;16.10;61.10;;;;;;6163128;28;20483;-84
2023/10/21 15:51:37;;;;;;;1.85;0.75;;;16.10;63.90;;;;;;6177391;28;20095;-83
2023/10/21 15:54:39;;;;;;;6.05;1.02;;;16.10;59.10;;;;;;6170520;28;20061;-84
2023/10/21 15:57:41;;;;;;;4.43;0.82;;;16.10;62.80;;;;;;6149370;28;20051;-84
2023/10/21 16:00:42;;;;;;;4.18;0.82;;;16.20;65.00;;;;;;6172470;28;20156;-84
2023/10/21 16:03:44;;;;;;;3.05;1.02;;;16.20;66.20;;;;;;6173995;28;20209;-84
2023/10/21 16:06:46;;;;;;;6.28;0.93;;;16.20;70.90;;;;;;6148404;28;20047;-84
2023/10/21 16:09:48;;;;;;;3.88;1.08;;;16.20;71.40;;;;;;6178092;28;20137;-85
2023/10/21 16:12:50;;;;;;;4.72;0.90;;;16.20;72.70;;;;;;6151720;28;20050;-85
2023/10/21 16:15:52;;;;;;;5.68;1.10;;;16.20;71.70;;;;;;6177735;28;20067;-86
2023/10/21 16:18:54;;;;;;;4.38;0.80;;;16.10;72.00;;;;;;6154611;28;20180;-84
2023/10/21 16:21:57;;;;;;;2.45;0.70;;;16.00;73.50;;;;;;6184362;28;20055;-84
2023/10/21 16:24:58;;;;;;;15.35;2.60;;;15.90;73.50;;;;;;6174566;28;20065;-81
2023/10/21 16:28:00;;;;;;;8.35;1.58;;;15.90;77.60;;;;;;6155301;28;20487;-81